Time;durP1;ratioP1;P1;durP2;ratioP2;P2;SDS_P1;SDS_P2;PMS_P1;PMS_P2;Temp;Humidity;BMP_temperature;BMP_pressure;BME280_temperature;BME280_humidity;BME280_pressure;Samples;Min_cycle;Max_cycle;Signal;HPM_P1;HPM_P2
2024/01/04 00:00:25;;;;;;;2.30;0.90;;;7.20;99.90;;;;;;4901603;29;20728;-75
2024/01/04 00:02:51;;;;;;;1.73;0.83;;;7.20;99.90;;;;;;4898040;29;20448;-74
2024/01/04 00:05:17;;;;;;;1.40;1.00;;;7.10;99.90;;;;;;4887684;29;20457;-75
2024/01/04 00:07:43;;;;;;;3.63;1.00;;;7.10;99.90;;;;;;4893124;29;20484;-75
2024/01/04 00:10:09;;;;;;;1.50;1.07;;;7.10;99.90;;;;;;4876653;29;20511;-76
2024/01/04 00:12:34;;;;;;;2.30;1.00;;;7.10;99.90;;;;;;4892397;29;20216;-74
2024/01/04 00:15:03;;;;;;;3.27;1.10;;;7.10;99.90;;;;;;4900793;29;20530;-74
2024/01/04 00:17:29;;;;;;;2.17;1.00;;;7.10;99.90;;;;;;4902423;29;20230;-75
2024/01/04 00:19:55;;;;;;;1.23;1.00;;;7.10;99.90;;;;;;4899802;29;20428;-74
2024/01/04 00:22:20;;;;;;;3.63;1.37;;;7.10;99.90;;;;;;4895289;29;20906;-73
2024/01/04 00:24:46;;;;;;;3.57;1.13;;;7.20;99.90;;;;;;4898857;29;20192;-74
2024/01/04 00:27:11;;;;;;;2.23;1.37;;;7.20;99.90;;;;;;4902539;29;20218;-73
2024/01/04 00:29:37;;;;;;;1.47;1.13;;;7.20;99.90;;;;;;4899825;29;20215;-73
2024/01/04 00:32:03;;;;;;;2.13;1.43;;;7.20;99.90;;;;;;4896213;29;20203;-73
2024/01/04 00:34:28;;;;;;;3.20;1.43;;;7.30;99.90;;;;;;4896491;29;20180;-73
2024/01/04 00:36:54;;;;;;;3.07;2.00;;;7.30;99.90;;;;;;4897819;29;20703;-74
2024/01/04 00:39:24;;;;;;;4.97;2.00;;;7.30;99.90;;;;;;4900848;29;20203;-75
2024/01/04 00:41:53;;;;;;;6.30;1.93;;;7.30;99.90;;;;;;4895708;29;20211;-74
2024/01/04 00:44:19;;;;;;;7.83;2.30;;;7.40;99.90;;;;;;4898240;29;20475;-74
2024/01/04 00:46:45;;;;;;;5.13;2.10;;;7.40;99.90;;;;;;4905004;29;20542;-73
2024/01/04 00:49:11;;;;;;;4.67;2.10;;;7.40;99.90;;;;;;4900881;29;20498;-73
2024/01/04 00:51:36;;;;;;;3.40;2.20;;;7.40;99.90;;;;;;4891366;29;20503;-75
2024/01/04 00:54:03;;;;;;;4.73;2.00;;;7.50;99.90;;;;;;4876333;29;20583;-73
2024/01/04 00:56:33;;;;;;;5.20;2.67;;;7.50;99.90;;;;;;4893030;29;20440;-73
2024/01/04 00:59:03;;;;;;;4.77;2.20;;;7.50;99.90;;;;;;4893239;29;20211;-73
2024/01/04 01:01:30;;;;;;;6.63;2.23;;;7.50;99.90;;;;;;4894803;29;20687;-75
2024/01/04 01:03:57;;;;;;;4.33;1.90;;;7.60;99.90;;;;;;4897483;29;20434;-74
2024/01/04 01:06:23;;;;;;;2.30;2.10;;;7.50;99.90;;;;;;4902803;29;20445;-74
2024/01/04 01:08:48;;;;;;;5.83;2.00;;;7.50;99.90;;;;;;4900857;29;20432;-74
2024/01/04 01:11:14;;;;;;;3.30;1.60;;;7.50;99.90;;;;;;4892666;29;20213;-73
2024/01/04 01:13:39;;;;;;;4.00;1.90;;;7.50;99.90;;;;;;4897023;29;20199;-73
2024/01/04 01:16:05;;;;;;;3.03;1.90;;;7.50;99.90;;;;;;4885423;29;20270;-74
2024/01/04 01:18:31;;;;;;;3.13;2.00;;;7.50;99.90;;;;;;4896486;29;20256;-74
2024/01/04 01:20:57;;;;;;;5.40;2.17;;;7.50;99.90;;;;;;4891249;29;20226;-73
2024/01/04 01:23:23;;;;;;;6.47;2.33;;;7.50;99.90;;;;;;4902256;29;20203;-73
2024/01/04 01:25:48;;;;;;;4.60;1.93;;;7.50;99.90;;;;;;4895885;29;20466;-74
2024/01/04 01:28:14;;;;;;;4.60;1.97;;;7.50;99.90;;;;;;4888844;29;20187;-73
2024/01/04 01:30:40;;;;;;;3.70;2.27;;;7.50;99.90;;;;;;4885762;29;20224;-73
2024/01/04 01:33:05;;;;;;;7.33;2.50;;;7.50;99.90;;;;;;4897921;29;20175;-74
2024/01/04 01:35:31;;;;;;;6.10;2.77;;;7.50;99.90;;;;;;4889165;29;20219;-73
2024/01/04 01:37:57;;;;;;;3.60;2.20;;;7.50;99.90;;;;;;4893019;29;20251;-74
2024/01/04 01:40:22;;;;;;;5.60;2.10;;;7.50;99.90;;;;;;4894451;29;20195;-72
2024/01/04 01:42:48;;;;;;;4.80;2.10;;;7.50;99.90;;;;;;4900884;29;20259;-73
2024/01/04 01:45:17;;;;;;;3.67;1.93;;;7.60;99.90;;;;;;4890753;29;20639;-74
2024/01/04 01:47:45;;;;;;;4.90;1.90;;;7.60;99.90;;;;;;4888312;29;20441;-73
2024/01/04 01:50:11;;;;;;;3.17;1.70;;;7.60;99.90;;;;;;4867436;29;20726;-73
2024/01/04 01:52:37;;;;;;;2.80;1.83;;;7.60;99.90;;;;;;4894215;29;20510;-72
2024/01/04 01:55:03;;;;;;;5.90;2.67;;;7.60;99.90;;;;;;4892616;29;20517;-73
2024/01/04 01:57:33;;;;;;;6.03;2.87;;;7.60;99.90;;;;;;4882878;29;20417;-73
2024/01/04 02:00:00;;;;;;;7.50;2.33;;;7.60;99.90;;;;;;4894278;29;20427;-72
2024/01/04 02:02:26;;;;;;;3.07;2.00;;;7.60;99.90;;;;;;4872296;29;20423;-72
2024/01/04 02:04:52;;;;;;;6.70;2.03;;;7.60;99.90;;;;;;4898118;29;20699;-73
2024/01/04 02:07:18;;;;;;;4.67;1.83;;;7.70;99.90;;;;;;4892434;29;20886;-72
2024/01/04 02:09:43;;;;;;;5.30;2.10;;;7.70;99.90;;;;;;4894178;29;20464;-73
2024/01/04 02:12:13;;;;;;;2.80;2.00;;;7.70;99.90;;;;;;4890308;29;20192;-74
2024/01/04 02:14:39;;;;;;;3.17;2.07;;;7.70;99.90;;;;;;4897234;29;20594;-73
2024/01/04 02:17:07;;;;;;;3.90;2.13;;;7.70;99.90;;;;;;4883399;29;20480;-73
2024/01/04 02:19:33;;;;;;;7.20;2.50;;;7.70;99.90;;;;;;4892702;29;20434;-74
2024/01/04 02:21:59;;;;;;;7.03;2.77;;;7.70;99.90;;;;;;4895199;29;20715;-73
2024/01/04 02:24:25;;;;;;;9.00;3.70;;;7.70;99.90;;;;;;4895782;29;20419;-73
2024/01/04 02:26:52;;;;;;;9.33;4.10;;;7.70;99.90;;;;;;4896853;29;20719;-72
2024/01/04 02:29:17;;;;;;;10.50;4.43;;;7.70;99.90;;;;;;4899611;29;20471;-73
2024/01/04 02:31:44;;;;;;;11.17;3.60;;;7.60;99.90;;;;;;4889903;29;20439;-73
2024/01/04 02:34:10;;;;;;;9.13;3.50;;;7.60;99.90;;;;;;4891360;29;20199;-73
2024/01/04 02:36:35;;;;;;;7.23;4.00;;;7.60;99.90;;;;;;4877460;29;20458;-72
2024/01/04 02:39:01;;;;;;;5.67;3.70;;;7.60;99.90;;;;;;4890009;29;20206;-73
2024/01/04 02:41:26;;;;;;;15.00;4.40;;;7.60;99.90;;;;;;4893274;29;20448;-74
2024/01/04 02:43:52;;;;;;;10.37;4.90;;;7.60;99.90;;;;;;4887648;29;20186;-73
2024/01/04 02:46:17;;;;;;;13.27;4.73;;;7.60;99.90;;;;;;4893835;29;20223;-73
2024/01/04 02:48:43;;;;;;;9.23;4.90;;;7.60;99.90;;;;;;4891217;29;20215;-72
2024/01/04 02:51:08;;;;;;;8.47;4.63;;;7.60;99.90;;;;;;4893039;29;20879;-73
2024/01/04 02:53:35;;;;;;;15.40;4.90;;;7.60;99.90;;;;;;4893022;29;20278;-72
2024/01/04 02:56:01;;;;;;;8.37;4.33;;;7.50;99.90;;;;;;4900380;29;20526;-71
2024/01/04 02:58:27;;;;;;;7.10;3.90;;;7.50;99.90;;;;;;4889985;29;20460;-72
2024/01/04 03:00:53;;;;;;;11.33;4.50;;;7.50;99.90;;;;;;4894745;29;20431;-73
2024/01/04 03:03:18;;;;;;;8.50;4.30;;;7.50;99.90;;;;;;4900304;29;20202;-76
2024/01/04 03:05:44;;;;;;;11.47;4.90;;;7.50;99.90;;;;;;4899906;29;20223;-72
2024/01/04 03:08:09;;;;;;;10.93;4.80;;;7.50;99.90;;;;;;4899372;29;20209;-73
2024/01/04 03:10:35;;;;;;;10.10;5.53;;;7.50;99.90;;;;;;4893792;29;20204;-74
2024/01/04 03:13:03;;;;;;;10.53;5.37;;;7.40;99.90;;;;;;4893134;29;20196;-73
2024/01/04 03:15:28;;;;;;;10.73;5.10;;;7.50;99.90;;;;;;4901451;29;20235;-73
2024/01/04 03:17:54;;;;;;;12.30;5.97;;;7.50;99.90;;;;;;4894577;29;20504;-73
2024/01/04 03:20:19;;;;;;;12.80;5.47;;;7.50;99.90;;;;;;4882055;29;20500;-73
2024/01/04 03:22:45;;;;;;;11.67;4.80;;;7.50;99.90;;;;;;4891275;29;20204;-72
2024/01/04 03:25:11;;;;;;;14.90;6.67;;;7.50;99.90;;;;;;4878892;29;20247;-74
2024/01/04 03:27:36;;;;;;;9.93;4.40;;;7.50;99.90;;;;;;4899198;29;20199;-74
2024/01/04 03:30:02;;;;;;;9.37;4.70;;;7.50;99.90;;;;;;4903368;29;20473;-71
2024/01/04 03:32:28;;;;;;;9.83;4.70;;;7.50;99.90;;;;;;4896037;29;20190;-73
2024/01/04 03:34:53;;;;;;;7.93;5.40;;;7.50;99.90;;;;;;4899889;29;20420;-74
2024/01/04 03:37:19;;;;;;;7.10;4.70;;;7.50;99.90;;;;;;4892428;29;20183;-72
2024/01/04 03:39:45;;;;;;;15.67;5.00;;;7.50;99.90;;;;;;4879543;29;20211;-73
2024/01/04 03:42:10;;;;;;;9.77;5.40;;;7.50;99.90;;;;;;4897693;29;20185;-74
2024/01/04 03:44:37;;;;;;;13.10;5.17;;;7.50;99.90;;;;;;4904142;29;20227;-72
2024/01/04 03:47:04;;;;;;;17.33;6.07;;;7.50;99.90;;;;;;4888724;29;20611;-73
2024/01/04 03:49:31;;;;;;;11.30;5.27;;;7.50;99.90;;;;;;4892539;29;20493;-72
2024/01/04 03:51:57;;;;;;;16.63;6.33;;;7.50;99.90;;;;;;4895046;29;20877;-73
2024/01/04 03:54:22;;;;;;;13.20;5.20;;;7.50;99.90;;;;;;4889493;29;20596;-73
2024/01/04 03:56:48;;;;;;;11.70;4.63;;;7.50;99.90;;;;;;4891254;29;20215;-74
2024/01/04 03:59:13;;;;;;;17.57;5.27;;;7.50;99.90;;;;;;4899502;29;20214;-74
2024/01/04 04:01:44;;;;;;;11.23;5.07;;;7.50;99.90;;;;;;4901952;29;20195;-73
2024/01/04 04:04:09;;;;;;;18.53;5.23;;;7.40;99.90;;;;;;4890203;29;20200;-74
2024/01/04 04:06:35;;;;;;;10.37;5.20;;;7.40;99.90;;;;;;4890593;29;20740;-73
2024/01/04 04:09:01;;;;;;;10.97;4.70;;;7.40;99.90;;;;;;4890593;29;20256;-73
2024/01/04 04:11:26;;;;;;;12.00;4.43;;;7.40;99.90;;;;;;4903060;29;20587;-73
2024/01/04 04:13:52;;;;;;;9.33;4.27;;;7.40;99.90;;;;;;4859230;29;20620;-73
2024/01/04 04:16:17;;;;;;;10.33;4.40;;;7.40;99.90;;;;;;4882720;29;20234;-73
2024/01/04 04:18:43;;;;;;;7.90;5.07;;;7.50;99.90;;;;;;4895757;29;20521;-72
2024/01/04 04:21:08;;;;;;;17.67;4.80;;;7.40;99.90;;;;;;4894658;29;20203;-73
2024/01/04 04:23:34;;;;;;;8.23;4.73;;;7.40;99.90;;;;;;4901831;29;20199;-74
2024/01/04 04:26:04;;;;;;;6.63;4.50;;;7.40;99.90;;;;;;4895753;29;20298;-73
2024/01/04 04:28:30;;;;;;;9.43;5.40;;;7.40;99.90;;;;;;4895502;29;20192;-74
2024/01/04 04:30:55;;;;;;;10.67;4.30;;;7.40;99.90;;;;;;4894055;29;20474;-72
2024/01/04 04:33:21;;;;;;;11.43;5.77;;;7.40;99.90;;;;;;4895401;29;20276;-74
2024/01/04 04:35:46;;;;;;;14.73;4.93;;;7.40;99.90;;;;;;4901283;29;20533;-73
2024/01/04 04:38:12;;;;;;;8.73;5.90;;;7.50;99.90;;;;;;4900169;29;20558;-73
2024/01/04 04:40:37;;;;;;;8.50;4.40;;;7.40;99.90;;;;;;4899029;29;20322;-74
2024/01/04 04:43:03;;;;;;;15.10;5.77;;;7.50;99.90;;;;;;4900616;29;20204;-74
2024/01/04 04:45:28;;;;;;;14.50;6.00;;;7.50;99.90;;;;;;4901941;29;20213;-74
2024/01/04 04:47:54;;;;;;;18.57;7.30;;;7.50;99.90;;;;;;4899450;29;20196;-74
2024/01/04 04:50:20;;;;;;;26.30;7.60;;;7.50;99.90;;;;;;4899113;29;20219;-74
2024/01/04 04:52:45;;;;;;;14.57;6.87;;;7.50;99.90;;;;;;4907386;29;20163;-73
2024/01/04 04:55:11;;;;;;;13.87;6.80;;;7.50;99.90;;;;;;4897803;29;20224;-74
2024/01/04 04:57:36;;;;;;;14.30;7.60;;;7.50;99.90;;;;;;4899485;29;20196;-72
2024/01/04 05:00:02;;;;;;;17.03;7.73;;;7.50;99.90;;;;;;4900258;29;20212;-74
2024/01/04 05:02:28;;;;;;;16.53;6.70;;;7.50;99.90;;;;;;4898998;29;20203;-73
2024/01/04 05:04:54;;;;;;;15.03;6.53;;;7.60;99.90;;;;;;4895368;29;20436;-73
2024/01/04 05:07:19;;;;;;;11.73;5.53;;;7.60;99.90;;;;;;4896514;29;20202;-73
2024/01/04 05:09:45;;;;;;;22.17;6.47;;;7.60;99.90;;;;;;4890783;29;20223;-73
2024/01/04 05:12:10;;;;;;;20.47;6.83;;;7.70;99.90;;;;;;4896726;29;20195;-73
2024/01/04 05:14:36;;;;;;;18.73;6.17;;;7.70;99.90;;;;;;4878341;29;20234;-74
2024/01/04 05:17:01;;;;;;;11.47;6.37;;;7.70;99.90;;;;;;4905847;29;20218;-74
2024/01/04 05:19:27;;;;;;;7.60;4.63;;;7.70;99.90;;;;;;4900271;29;20189;-74
2024/01/04 05:21:52;;;;;;;11.03;5.17;;;7.60;99.90;;;;;;4896944;29;20200;-73
2024/01/04 05:24:19;;;;;;;10.97;3.67;;;7.60;99.90;;;;;;4900491;29;20242;-75
2024/01/04 05:26:45;;;;;;;8.70;3.70;;;7.60;99.90;;;;;;4877707;29;20215;-73
2024/01/04 05:29:11;;;;;;;7.40;3.33;;;7.50;99.90;;;;;;4893958;29;20418;-74
2024/01/04 05:31:36;;;;;;;8.23;2.43;;;7.50;99.90;;;;;;4894626;29;20242;-73
2024/01/04 05:34:02;;;;;;;5.63;2.63;;;7.40;99.90;;;;;;4897159;29;20191;-73
2024/01/04 05:36:30;;;;;;;6.57;2.30;;;7.30;99.90;;;;;;4898068;29;20238;-76
2024/01/04 05:38:55;;;;;;;2.07;1.67;;;7.20;99.90;;;;;;4897512;29;20243;-74
2024/01/04 05:41:21;;;;;;;4.70;2.23;;;7.20;99.90;;;;;;4888463;29;20428;-74
2024/01/04 05:43:46;;;;;;;5.63;1.87;;;7.20;99.90;;;;;;4894931;29;20175;-74
2024/01/04 05:46:12;;;;;;;5.67;1.90;;;7.20;99.90;;;;;;4899505;29;20270;-74
2024/01/04 05:48:38;;;;;;;4.70;2.40;;;7.20;99.90;;;;;;4894129;29;20199;-75
2024/01/04 05:51:04;;;;;;;10.83;5.10;;;7.30;99.90;;;;;;4877935;29;20218;-74
2024/01/04 05:53:29;;;;;;;3.93;2.77;;;7.20;99.90;;;;;;4876867;29;20432;-74
2024/01/04 05:55:55;;;;;;;6.97;2.70;;;7.20;99.90;;;;;;4896917;29;20243;-74
2024/01/04 05:58:20;;;;;;;3.80;2.70;;;7.30;99.90;;;;;;4893159;29;20202;-74
2024/01/04 06:00:47;;;;;;;6.00;2.67;;;7.40;99.90;;;;;;4895589;29;20197;-76
2024/01/04 06:03:13;;;;;;;5.70;2.73;;;7.50;99.90;;;;;;4894699;29;20293;-73
2024/01/04 06:05:38;;;;;;;2.30;2.00;;;7.40;99.90;;;;;;4881133;29;20860;-75
2024/01/04 06:08:04;;;;;;;2.90;2.03;;;7.50;99.90;;;;;;4898874;29;20214;-75
2024/01/04 06:10:30;;;;;;;3.50;1.87;;;7.40;99.90;;;;;;4890386;29;20223;-74
2024/01/04 06:12:55;;;;;;;2.20;1.87;;;7.30;99.90;;;;;;4892062;29;20794;-74
2024/01/04 06:15:21;;;;;;;3.67;2.00;;;7.30;99.90;;;;;;4893894;29;20481;-74
2024/01/04 06:17:47;;;;;;;7.40;3.37;;;7.30;99.90;;;;;;4892093;29;20199;-74
2024/01/04 06:20:12;;;;;;;3.63;2.70;;;7.30;99.90;;;;;;4887297;29;20214;-74
2024/01/04 06:22:39;;;;;;;9.00;3.57;;;7.30;99.90;;;;;;4895065;29;20190;-74
2024/01/04 06:25:05;;;;;;;3.43;2.73;;;7.30;99.90;;;;;;4896246;29;20239;-73
2024/01/04 06:27:31;;;;;;;4.03;3.17;;;7.30;99.90;;;;;;4888079;29;20959;-72
2024/01/04 06:29:56;;;;;;;3.93;2.83;;;7.30;99.90;;;;;;4888452;29;20527;-72
2024/01/04 06:32:22;;;;;;;4.20;2.40;;;7.30;99.90;;;;;;4886925;29;20559;-74
2024/01/04 06:34:47;;;;;;;3.10;2.23;;;7.30;99.90;;;;;;4893695;29;20199;-74
2024/01/04 06:37:13;;;;;;;4.10;3.33;;;7.30;99.90;;;;;;4898008;29;20203;-75
2024/01/04 06:39:39;;;;;;;5.57;2.50;;;7.30;99.90;;;;;;4892815;29;20222;-74
2024/01/04 06:42:05;;;;;;;3.33;2.20;;;7.30;99.90;;;;;;4898127;29;20263;-76
2024/01/04 06:44:32;;;;;;;5.10;3.23;;;7.30;99.90;;;;;;4886768;29;20199;-76
2024/01/04 06:46:58;;;;;;;6.63;3.77;;;7.30;99.90;;;;;;4896390;29;20219;-74
2024/01/04 06:49:23;;;;;;;7.83;3.80;;;7.30;99.90;;;;;;4880885;29;20459;-74
2024/01/04 06:51:49;;;;;;;6.97;3.53;;;7.30;99.90;;;;;;4890114;29;20579;-75
2024/01/04 06:54:15;;;;;;;7.10;3.60;;;7.30;99.90;;;;;;4896634;29;20377;-74
2024/01/04 06:56:40;;;;;;;5.63;2.67;;;7.20;99.90;;;;;;4862834;29;20581;-74
2024/01/04 06:59:06;;;;;;;3.40;2.07;;;7.20;99.90;;;;;;4896967;29;20200;-75
2024/01/04 07:01:31;;;;;;;2.60;1.90;;;7.20;99.90;;;;;;4901480;29;20187;-75
2024/01/04 07:03:57;;;;;;;4.33;2.30;;;7.10;99.90;;;;;;4897055;29;20195;-74
2024/01/04 07:06:23;;;;;;;3.10;2.03;;;7.10;99.90;;;;;;4894896;29;20278;-73
2024/01/04 07:08:49;;;;;;;2.73;1.67;;;7.00;99.90;;;;;;4882290;29;20426;-75
2024/01/04 07:11:14;;;;;;;3.93;2.00;;;7.00;99.90;;;;;;4904936;29;20628;-75
2024/01/04 07:13:40;;;;;;;3.30;2.20;;;7.00;99.90;;;;;;4901462;29;20463;-74
2024/01/04 07:16:06;;;;;;;5.43;1.70;;;7.00;99.90;;;;;;4894537;29;20215;-74
2024/01/04 07:18:31;;;;;;;7.23;2.03;;;6.90;99.90;;;;;;4898183;29;20200;-74
2024/01/04 07:20:57;;;;;;;3.83;2.00;;;6.90;99.90;;;;;;4894549;29;20223;-77
2024/01/04 07:23:23;;;;;;;4.33;2.63;;;6.90;99.90;;;;;;4874484;29;20180;-74
2024/01/04 07:25:48;;;;;;;2.90;1.70;;;6.90;99.90;;;;;;4898119;29;20249;-77
2024/01/04 07:28:14;;;;;;;6.00;3.97;;;6.90;99.90;;;;;;4901631;29;20194;-74
2024/01/04 07:30:40;;;;;;;5.43;3.27;;;6.90;99.90;;;;;;4893635;29;20223;-75
2024/01/04 07:33:05;;;;;;;4.50;3.20;;;6.90;99.90;;;;;;4890882;29;20199;-76
2024/01/04 07:35:31;;;;;;;4.00;2.60;;;6.90;99.90;;;;;;4875310;29;20448;-75
2024/01/04 07:37:59;;;;;;;4.93;3.40;;;7.00;99.90;;;;;;4898377;29;20204;-76
2024/01/04 07:40:24;;;;;;;5.47;3.20;;;7.00;99.90;;;;;;4897171;29;20704;-75
2024/01/04 07:42:50;;;;;;;6.70;3.23;;;7.00;99.90;;;;;;4903938;29;20416;-78
2024/01/04 07:45:15;;;;;;;4.63;2.53;;;7.00;99.90;;;;;;4905345;29;20215;-76
2024/01/04 07:47:41;;;;;;;5.73;2.97;;;7.00;99.90;;;;;;4896147;29;20221;-75
2024/01/04 07:50:07;;;;;;;6.17;3.00;;;7.10;99.90;;;;;;4877979;29;20330;-76
2024/01/04 07:52:33;;;;;;;9.13;3.20;;;7.10;99.90;;;;;;4894072;29;20183;-76
2024/01/04 07:54:59;;;;;;;5.83;3.67;;;7.10;99.90;;;;;;4907549;29;20766;-76
2024/01/04 07:57:24;;;;;;;6.57;3.43;;;7.10;99.90;;;;;;4894146;29;20196;-77
2024/01/04 07:59:50;;;;;;;6.13;4.10;;;7.20;99.90;;;;;;4906898;29;20195;-76
2024/01/04 08:02:17;;;;;;;8.87;3.90;;;7.20;99.90;;;;;;4898452;29;20196;-76
2024/01/04 08:04:43;;;;;;;9.63;5.10;;;7.20;99.90;;;;;;4882297;29;20203;-78
2024/01/04 08:07:08;;;;;;;6.33;4.20;;;7.20;99.90;;;;;;4893837;29;20469;-76
2024/01/04 08:09:34;;;;;;;7.00;4.70;;;7.20;99.90;;;;;;4898138;29;20215;-75
2024/01/04 08:11:59;;;;;;;4.97;3.77;;;7.20;99.90;;;;;;4901901;29;20199;-75
2024/01/04 08:14:25;;;;;;;6.63;4.03;;;7.30;99.90;;;;;;4862990;29;20191;-74
2024/01/04 08:16:50;;;;;;;14.77;7.17;;;7.40;99.90;;;;;;4883626;29;20254;-77
2024/01/04 08:19:17;;;;;;;6.07;4.30;;;7.40;99.90;;;;;;4888920;29;20189;-77
2024/01/04 08:21:43;;;;;;;9.93;4.70;;;7.40;99.90;;;;;;4910434;29;20187;-75
2024/01/04 08:24:09;;;;;;;11.03;4.90;;;7.40;99.90;;;;;;4885261;29;20491;-75
2024/01/04 08:26:41;;;;;;;13.90;5.60;;;7.40;99.90;;;;;;4899175;29;20219;-75
2024/01/04 08:29:07;;;;;;;8.07;4.40;;;7.50;99.90;;;;;;4889808;29;20223;-77
2024/01/04 08:31:32;;;;;;;7.97;4.33;;;7.50;99.90;;;;;;4890915;29;20866;-77
2024/01/04 08:33:58;;;;;;;7.63;4.13;;;7.50;99.90;;;;;;4899084;29;20758;-76
2024/01/04 08:36:24;;;;;;;8.97;5.17;;;7.60;99.90;;;;;;4905954;29;20218;-76
2024/01/04 08:38:49;;;;;;;9.17;4.73;;;7.60;99.90;;;;;;4899270;29;20209;-73
2024/01/04 08:41:15;;;;;;;8.53;3.67;;;7.60;99.90;;;;;;4890937;29;20175;-74
2024/01/04 08:43:41;;;;;;;6.67;3.80;;;7.50;99.90;;;;;;4896562;29;20199;-76
2024/01/04 08:46:06;;;;;;;13.60;4.30;;;7.50;99.90;;;;;;4882777;29;20481;-77
2024/01/04 08:48:32;;;;;;;12.00;4.17;;;7.50;99.90;;;;;;4897404;29;20630;-76
2024/01/04 08:50:57;;;;;;;8.97;4.10;;;7.50;99.90;;;;;;4902903;29;20208;-75
2024/01/04 08:53:23;;;;;;;14.33;4.57;;;7.50;99.90;;;;;;4872694;29;20225;-75
2024/01/04 08:55:49;;;;;;;17.90;4.07;;;7.50;99.90;;;;;;4899185;29;20222;-76
2024/01/04 08:58:15;;;;;;;12.53;4.40;;;7.50;99.90;;;;;;4894850;29;20228;-77
2024/01/04 09:00:41;;;;;;;7.00;3.90;;;7.50;99.90;;;;;;4885874;29;20207;-74
2024/01/04 09:03:07;;;;;;;9.37;4.50;;;7.60;99.90;;;;;;4879626;29;20430;-73
2024/01/04 09:05:33;;;;;;;19.23;4.40;;;7.60;99.90;;;;;;4898228;29;20227;-74
2024/01/04 09:07:59;;;;;;;8.50;3.70;;;7.70;99.90;;;;;;4890107;29;20219;-76
2024/01/04 09:10:25;;;;;;;11.83;3.97;;;7.70;99.90;;;;;;4897725;29;20448;-74
2024/01/04 09:12:53;;;;;;;10.67;4.30;;;7.70;99.90;;;;;;4902388;29;20180;-75
2024/01/04 09:15:19;;;;;;;6.60;3.60;;;7.70;99.90;;;;;;4887196;29;20227;-74
2024/01/04 09:17:45;;;;;;;7.77;3.80;;;7.70;99.90;;;;;;4863097;29;20475;-74
2024/01/04 09:20:10;;;;;;;8.77;4.47;;;7.80;99.90;;;;;;4886125;29;20435;-74
2024/01/04 09:22:36;;;;;;;7.07;4.10;;;7.80;99.90;;;;;;4890119;29;20191;-77
2024/01/04 09:25:03;;;;;;;7.43;3.93;;;7.80;99.90;;;;;;4879732;29;20224;-76
2024/01/04 09:27:29;;;;;;;13.17;3.67;;;7.90;99.90;;;;;;4898916;29;20196;-75
2024/01/04 09:29:55;;;;;;;12.47;3.30;;;7.90;99.90;;;;;;4885464;29;20483;-75
2024/01/04 09:32:21;;;;;;;8.33;3.70;;;7.90;99.90;;;;;;4883813;29;20493;-76
2024/01/04 09:34:47;;;;;;;5.90;3.07;;;7.90;99.90;;;;;;4869666;29;20752;-77
2024/01/04 09:37:16;;;;;;;17.83;3.93;;;8.00;99.90;;;;;;4893061;29;20420;-73
2024/01/04 09:39:44;;;;;;;8.77;4.13;;;8.00;99.90;;;;;;4878844;29;20199;-76
2024/01/04 09:42:10;;;;;;;16.23;3.40;;;8.00;99.90;;;;;;4881010;29;20431;-77
2024/01/04 09:44:36;;;;;;;6.30;3.20;;;8.10;99.90;;;;;;4876798;29;20294;-77
2024/01/04 09:47:09;;;;;;;9.40;3.20;;;8.10;99.90;;;;;;4888269;29;20471;-75
2024/01/04 09:49:37;;;;;;;4.00;3.10;;;8.10;99.90;;;;;;4894181;29;20503;-75
2024/01/04 09:52:03;;;;;;;4.33;3.00;;;8.10;99.90;;;;;;4883647;29;20538;-74
2024/01/04 09:54:30;;;;;;;6.20;3.20;;;8.10;99.90;;;;;;4879239;29;20432;-76
2024/01/04 09:56:56;;;;;;;3.87;2.30;;;8.00;99.90;;;;;;4886779;29;20513;-78
2024/01/04 09:59:21;;;;;;;10.80;3.73;;;8.00;99.90;;;;;;4907123;29;20434;-77
2024/01/04 10:01:49;;;;;;;9.83;2.40;;;7.90;99.90;;;;;;4902440;29;20199;-75
2024/01/04 10:04:16;;;;;;;13.47;3.67;;;8.00;99.90;;;;;;4902462;29;20202;-76
2024/01/04 10:06:45;;;;;;;4.67;3.07;;;8.00;99.90;;;;;;4884045;29;20474;-75
2024/01/04 10:09:15;;;;;;;5.97;3.10;;;8.10;99.90;;;;;;4894624;29;20550;-77
2024/01/04 10:11:45;;;;;;;10.73;3.60;;;8.20;99.90;;;;;;4892317;29;20480;-69
2024/01/04 10:14:10;;;;;;;7.83;3.20;;;8.30;99.90;;;;;;4894952;29;20671;-70
2024/01/04 10:16:37;;;;;;;7.63;3.17;;;8.40;99.90;;;;;;4901300;29;20460;-72
2024/01/04 10:19:03;;;;;;;5.93;3.20;;;8.60;99.90;;;;;;4892832;29;20241;-72
2024/01/04 10:21:33;;;;;;;5.20;3.30;;;8.70;99.90;;;;;;4896331;29;20416;-69
2024/01/04 10:24:02;;;;;;;8.63;3.33;;;8.80;99.90;;;;;;4903704;29;20436;-68
2024/01/04 10:26:28;;;;;;;5.93;2.60;;;8.90;99.90;;;;;;4876431;29;20459;-72
2024/01/04 10:28:55;;;;;;;7.87;1.90;;;9.00;99.90;;;;;;4889978;29;20495;-71
2024/01/04 10:31:22;;;;;;;6.07;3.43;;;9.10;99.90;;;;;;4901915;29;20297;-77
2024/01/04 10:34:09;;;;;;;6.00;2.93;;;9.20;99.90;;;;;;4876374;29;20468;-80
2024/01/04 10:39:26;;;;;;;3.53;1.40;;;9.40;99.90;;;;;;5220978;23;20501;-80
2024/01/04 10:41:59;;;;;;;5.47;1.47;;;9.50;99.90;;;;;;4890377;29;20430;-78
2024/01/04 10:44:27;;;;;;;10.90;2.37;;;9.60;99.90;;;;;;4914290;29;20427;-82
2024/01/04 10:46:59;;;;;;;3.30;1.80;;;9.60;99.90;;;;;;4917571;29;20465;-78
2024/01/04 10:49:26;;;;;;;7.90;1.80;;;9.70;99.90;;;;;;4936714;29;20447;-79
2024/01/04 10:51:57;;;;;;;3.33;1.60;;;9.70;99.90;;;;;;4924091;29;20415;-79
2024/01/04 10:57:00;;;;;;;4.73;1.57;;;9.70;99.90;;;;;;5015612;23;20468;-80
2024/01/04 10:59:36;;;;;;;8.30;2.33;;;9.70;99.90;;;;;;4947157;29;20438;-78
2024/01/04 11:02:05;;;;;;;5.93;1.47;;;9.70;99.90;;;;;;4948584;29;20453;-80
2024/01/04 11:04:35;;;;;;;2.27;1.43;;;9.80;99.90;;;;;;4905275;29;20414;-81
2024/01/04 11:07:21;;;;;;;6.90;2.17;;;9.80;99.90;;;;;;4934360;29;20451;-82
2024/01/04 11:10:01;;;;;;;6.90;2.17;;;9.90;99.90;;;;;;4936175;29;20484;-82
2024/01/04 11:12:31;;;;;;;7.97;2.23;;;9.80;99.90;;;;;;4913337;29;20422;-80
2024/01/04 11:15:12;;;;;;;6.13;2.33;;;9.80;99.90;;;;;;4933652;29;20427;-80
2024/01/04 11:18:00;;;;;;;9.00;2.77;;;9.80;99.90;;;;;;4939560;29;20425;-79
2024/01/04 11:20:52;;;;;;;11.20;2.47;;;9.80;99.90;;;;;;4950919;29;20721;-78
2024/01/04 11:23:44;;;;;;;8.43;2.63;;;9.80;99.90;;;;;;4946153;29;20486;-79
2024/01/04 11:26:27;;;;;;;10.60;2.97;;;9.90;99.90;;;;;;4930252;29;20481;-79
2024/01/04 11:28:56;;;;;;;6.97;2.50;;;10.00;99.90;;;;;;4943945;29;20393;-78
2024/01/04 11:31:26;;;;;;;10.30;2.70;;;10.20;99.90;;;;;;4945283;29;20472;-80
2024/01/04 11:33:52;;;;;;;8.30;3.07;;;10.10;99.90;;;;;;4885547;29;20446;-81
2024/01/04 11:36:23;;;;;;;12.70;3.00;;;10.10;99.90;;;;;;4891942;29;20452;-81
2024/01/04 11:38:50;;;;;;;12.00;2.87;;;10.00;99.90;;;;;;4900165;29;20455;-79
2024/01/04 11:41:18;;;;;;;14.90;3.63;;;10.00;99.90;;;;;;4895280;29;20419;-84
2024/01/04 11:44:52;;;;;;;12.07;3.80;;;9.90;99.90;;;;;;4923861;29;20456;-84
2024/01/04 11:47:44;;;;;;;14.17;4.60;;;9.80;99.90;;;;;;4884663;29;20432;-83
2024/01/04 11:56:49;;;;;;;6.83;2.73;;;9.70;99.90;;;;;;4968796;23;20556;-80
2024/01/04 11:59:39;;;;;;;10.97;2.67;;;9.50;99.90;;;;;;4941241;29;20392;-78
2024/01/04 12:02:26;;;;;;;13.30;4.07;;;9.30;99.90;;;;;;4933491;29;20417;-81
2024/01/04 12:20:13;;;;;;;16.10;3.60;;;8.90;99.90;;;;;;5097236;23;20484;-81
2024/01/04 12:22:43;;;;;;;11.37;3.00;;;8.90;99.90;;;;;;4929611;29;20421;-82
2024/01/04 14:11:19;;;;;;;8.37;3.10;;;9.80;99.90;;;;;;5245379;23;20481;-82
2024/01/04 14:14:05;;;;;;;7.90;2.77;;;9.70;99.90;;;;;;4886946;29;20432;-81
2024/01/04 14:33:38;;;;;;;10.67;2.33;;;9.70;99.90;;;;;;4612671;27;20464;-82
2024/01/04 14:36:21;;;;;;;9.20;2.40;;;9.70;99.90;;;;;;4900641;29;20499;-82
2024/01/04 14:53:03;;;;;;;6.23;2.03;;;9.70;99.90;;;;;;5022616;23;20536;-83
2024/01/04 14:55:47;;;;;;;9.90;2.97;;;9.80;99.90;;;;;;4943994;28;20448;-82
2024/01/04 15:37:40;;;;;;;5.33;2.40;;;9.40;99.90;;;;;;4576193;23;20497;-82
2024/01/04 15:40:35;;;;;;;4.30;2.40;;;9.40;99.90;;;;;;4902109;29;20428;-82
2024/01/04 15:49:07;;;;;;;8.20;3.00;;;9.30;99.90;;;;;;5210162;23;20488;-83
2024/01/04 15:51:58;;;;;;;5.50;2.17;;;9.20;99.90;;;;;;4900686;29;20516;-82
2024/01/04 16:20:57;;;;;;;6.63;2.20;;;8.40;99.90;;;;;;4129358;27;20465;-80
2024/01/04 16:33:38;;;;;;;8.03;2.30;;;8.10;99.90;;;;;;3979092;27;20565;-82
2024/01/04 16:36:12;;;;;;;8.43;2.73;;;8.10;99.90;;;;;;4882920;29;20455;-74
2024/01/04 16:38:38;;;;;;;5.27;2.47;;;8.20;99.90;;;;;;4914949;29;20446;-75
2024/01/04 16:41:09;;;;;;;7.23;2.40;;;8.20;99.90;;;;;;4896874;29;20203;-75
2024/01/04 16:43:35;;;;;;;6.80;2.83;;;8.30;99.90;;;;;;4899960;29;20224;-74
2024/01/04 16:46:00;;;;;;;4.23;2.00;;;8.30;99.90;;;;;;4893229;29;20458;-74
2024/01/04 16:48:26;;;;;;;7.03;2.93;;;8.30;99.90;;;;;;4904508;29;20254;-76
2024/01/04 16:50:51;;;;;;;9.70;3.03;;;8.30;99.90;;;;;;4898179;29;20275;-74
2024/01/04 16:53:17;;;;;;;10.23;3.77;;;8.40;99.90;;;;;;4898636;29;20199;-75
2024/01/04 16:55:42;;;;;;;8.47;3.07;;;8.40;99.90;;;;;;4890834;29;20262;-75
2024/01/04 16:58:09;;;;;;;4.83;2.57;;;8.40;99.90;;;;;;4877424;29;20200;-74
2024/01/04 17:00:35;;;;;;;10.20;3.17;;;8.40;99.90;;;;;;4892543;29;20187;-75